Ana Sayfa
METAR-TAF:

METAR-TAF

Havaalanları :

Pocatello Regional Airport

Pocatello, Idaho, Amerika Birleşik Devletleri

Enlem: 42-55-13N, Boylam: 112-34-16W, yükseklik: 1356 m

Güncel hava durumu gözlemi

Rapor saat 19:53 UTC de 8 dakika önce yapıldı.
Rüzgar kuzeydan 6 kt
Sıcaklık 0°C
Nem 55%
Basınç 1030 hPa
Görüş mesafesi: 16.1 km
Açık gökyüzü

METAR: KPIH 181953Z 35006KT 10SM CLR 00/M08 A3042 RMK AO2 SLP332 T00001083

Saat: 13:01 (20:01 UTC)

Tahmin

Rapor saat 17:20 UTC de 2 saat ve 41 dakika önce yapıldı.
Ayın 18'si saat 18 UTC'den ayın 19'si saat 18 UTC'ye kadar geçerli Tahmin
Rüzgar değişken yönden 6 kt
Görüş mesafesi: 10 km
6000 ft yükseklikte parçalı bulutlu

TAF: KPIH 181720Z 1818/1918 VRB06KT P6SM SCT060

4.000'den fazla havaalanı için hava durumu gözlemleri ve tahminleri (METAR ve TAF raporları).

Kullanılabilir istasyonlar harita üzerinde sarı ve kırmızı noktalarla gösterilir.

İstasyonun adını görmek için fareyi noktanın üzerinde gezdirin.

Sonrasında hava gözlem ve tahminlerini görmek için tıklayın.

Haritayı değiştirmek için: yaklaştırmak için siyah artı işaretli yeşil düğmeye ve uzaklaştırmak için de eksi işaretli düğmeye hızla tıklayın; bitişik haritalar için yeşil okları kullanın.


METAR-TAF: